sensor_id;sensor_type;location;lat;lon;timestamp;P1;durP1;ratioP1;P2;durP2;ratioP2
50789;SDS011;37287;47.554;7.844;2022-09-09T00:00:16;0.80;;;0.70;;
50789;SDS011;37287;47.554;7.844;2022-09-09T00:02:46;1.48;;;0.80;;
50789;SDS011;37287;47.554;7.844;2022-09-09T00:05:27;3.20;;;0.90;;
50789;SDS011;37287;47.554;7.844;2022-09-09T00:07:58;1.02;;;0.77;;
50789;SDS011;37287;47.554;7.844;2022-09-09T00:10:33;0.82;;;0.68;;
50789;SDS011;37287;47.554;7.844;2022-09-09T00:13:11;3.70;;;0.80;;
50789;SDS011;37287;47.554;7.844;2022-09-09T00:16:27;1.98;;;0.60;;
50789;SDS011;37287;47.554;7.844;2022-09-09T00:21:35;2.88;;;1.33;;
50789;SDS011;37287;47.554;7.844;2022-09-09T00:24:13;1.90;;;1.23;;
50789;SDS011;37287;47.554;7.844;2022-09-09T00:26:59;2.22;;;1.20;;
50789;SDS011;37287;47.554;7.844;2022-09-09T00:29:35;3.08;;;1.10;;
50789;SDS011;37287;47.554;7.844;2022-09-09T00:32:12;7.80;;;0.90;;
50789;SDS011;37287;47.554;7.844;2022-09-09T00:34:49;4.13;;;1.25;;
50789;SDS011;37287;47.554;7.844;2022-09-09T00:39:48;2.05;;;1.13;;
50789;SDS011;37287;47.554;7.844;2022-09-09T00:42:18;3.65;;;0.93;;
50789;SDS011;37287;47.554;7.844;2022-09-09T00:44:53;2.58;;;1.33;;
50789;SDS011;37287;47.554;7.844;2022-09-09T00:47:45;4.38;;;1.10;;
50789;SDS011;37287;47.554;7.844;2022-09-09T00:56:16;3.45;;;0.93;;
50789;SDS011;37287;47.554;7.844;2022-09-09T00:58:50;5.38;;;1.08;;
50789;SDS011;37287;47.554;7.844;2022-09-09T01:01:21;2.05;;;1.40;;
50789;SDS011;37287;47.554;7.844;2022-09-09T01:06:30;3.05;;;1.50;;
50789;SDS011;37287;47.554;7.844;2022-09-09T01:12:06;4.00;;;1.50;;
50789;SDS011;37287;47.554;7.844;2022-09-09T01:14:43;4.25;;;1.50;;
50789;SDS011;37287;47.554;7.844;2022-09-09T01:17:19;5.93;;;2.13;;
50789;SDS011;37287;47.554;7.844;2022-09-09T01:20:09;6.65;;;1.58;;
50789;SDS011;37287;47.554;7.844;2022-09-09T01:28:11;2.25;;;1.20;;
50789;SDS011;37287;47.554;7.844;2022-09-09T01:30:46;1.42;;;1.30;;
50789;SDS011;37287;47.554;7.844;2022-09-09T01:33:17;3.42;;;1.27;;
50789;SDS011;37287;47.554;7.844;2022-09-09T01:38:28;4.32;;;1.23;;
50789;SDS011;37287;47.554;7.844;2022-09-09T01:40:57;1.90;;;1.02;;
50789;SDS011;37287;47.554;7.844;2022-09-09T01:43:26;3.15;;;1.48;;
50789;SDS011;37287;47.554;7.844;2022-09-09T01:45:58;3.60;;;1.52;;
50789;SDS011;37287;47.554;7.844;2022-09-09T01:48:27;1.83;;;1.30;;
50789;SDS011;37287;47.554;7.844;2022-09-09T01:50:56;2.78;;;1.30;;
50789;SDS011;37287;47.554;7.844;2022-09-09T01:53:23;2.42;;;1.33;;
50789;SDS011;37287;47.554;7.844;2022-09-09T01:56:05;1.35;;;1.20;;
50789;SDS011;37287;47.554;7.844;2022-09-09T02:04:50;2.65;;;1.05;;
50789;SDS011;37287;47.554;7.844;2022-09-09T02:10:12;4.93;;;1.35;;
50789;SDS011;37287;47.554;7.844;2022-09-09T02:12:44;3.40;;;1.20;;
50789;SDS011;37287;47.554;7.844;2022-09-09T02:15:20;4.25;;;1.40;;
50789;SDS011;37287;47.554;7.844;2022-09-09T02:17:52;2.65;;;1.35;;
50789;SDS011;37287;47.554;7.844;2022-09-09T02:20:23;2.58;;;1.25;;
50789;SDS011;37287;47.554;7.844;2022-09-09T02:22:58;1.48;;;0.75;;
50789;SDS011;37287;47.554;7.844;2022-09-09T02:25:29;1.08;;;0.98;;
50789;SDS011;37287;47.554;7.844;2022-09-09T02:27:56;2.70;;;1.33;;
50789;SDS011;37287;47.554;7.844;2022-09-09T02:30:24;1.48;;;1.30;;
50789;SDS011;37287;47.554;7.844;2022-09-09T02:33:00;2.70;;;1.20;;
50789;SDS011;37287;47.554;7.844;2022-09-09T02:35:29;2.65;;;1.25;;
50789;SDS011;37287;47.554;7.844;2022-09-09T02:37:59;3.20;;;1.30;;
50789;SDS011;37287;47.554;7.844;2022-09-09T02:40:32;9.07;;;1.52;;
50789;SDS011;37287;47.554;7.844;2022-09-09T02:42:59;2.95;;;1.00;;
50789;SDS011;37287;47.554;7.844;2022-09-09T02:45:27;3.38;;;1.30;;
50789;SDS011;37287;47.554;7.844;2022-09-09T02:48:52;5.30;;;1.30;;
50789;SDS011;37287;47.554;7.844;2022-09-09T02:51:07;2.30;;;1.33;;
50789;SDS011;37287;47.554;7.844;2022-09-09T02:53:43;1.80;;;1.20;;
50789;SDS011;37287;47.554;7.844;2022-09-09T02:56:16;1.13;;;1.00;;
50789;SDS011;37287;47.554;7.844;2022-09-09T02:58:49;2.83;;;1.00;;
50789;SDS011;37287;47.554;7.844;2022-09-09T03:01:18;1.27;;;1.00;;
50789;SDS011;37287;47.554;7.844;2022-09-09T03:03:45;4.15;;;1.10;;
50789;SDS011;37287;47.554;7.844;2022-09-09T03:06:12;2.45;;;0.80;;
50789;SDS011;37287;47.554;7.844;2022-09-09T03:08:40;1.63;;;0.80;;
50789;SDS011;37287;47.554;7.844;2022-09-09T03:11:14;1.08;;;0.60;;
50789;SDS011;37287;47.554;7.844;2022-09-09T03:13:49;0.82;;;0.80;;
50789;SDS011;37287;47.554;7.844;2022-09-09T03:16:15;1.85;;;0.82;;
50789;SDS011;37287;47.554;7.844;2022-09-09T03:18:42;1.52;;;0.65;;
50789;SDS011;37287;47.554;7.844;2022-09-09T03:21:13;1.70;;;0.80;;
50789;SDS011;37287;47.554;7.844;2022-09-09T03:23:40;2.60;;;0.80;;
50789;SDS011;37287;47.554;7.844;2022-09-09T03:26:07;1.05;;;0.85;;
50789;SDS011;37287;47.554;7.844;2022-09-09T03:28:34;1.00;;;0.90;;
50789;SDS011;37287;47.554;7.844;2022-09-09T03:31:02;0.98;;;0.95;;
50789;SDS011;37287;47.554;7.844;2022-09-09T03:33:30;0.77;;;0.75;;
50789;SDS011;37287;47.554;7.844;2022-09-09T03:36:04;1.80;;;0.82;;
50789;SDS011;37287;47.554;7.844;2022-09-09T03:38:31;2.90;;;1.25;;
50789;SDS011;37287;47.554;7.844;2022-09-09T03:41:00;1.65;;;1.27;;
50789;SDS011;37287;47.554;7.844;2022-09-09T03:43:28;1.95;;;1.10;;
50789;SDS011;37287;47.554;7.844;2022-09-09T03:45:57;2.90;;;1.10;;
50789;SDS011;37287;47.554;7.844;2022-09-09T03:48:24;4.60;;;1.70;;
50789;SDS011;37287;47.554;7.844;2022-09-09T03:50:54;2.63;;;1.58;;
50789;SDS011;37287;47.554;7.844;2022-09-09T03:53:22;4.45;;;1.98;;
50789;SDS011;37287;47.554;7.844;2022-09-09T03:55:52;6.93;;;1.75;;
50789;SDS011;37287;47.554;7.844;2022-09-09T03:58:21;7.10;;;1.75;;
50789;SDS011;37287;47.554;7.844;2022-09-09T04:00:57;6.10;;;1.73;;
50789;SDS011;37287;47.554;7.844;2022-09-09T04:03:27;2.33;;;1.70;;
50789;SDS011;37287;47.554;7.844;2022-09-09T04:05:55;1.70;;;1.27;;
50789;SDS011;37287;47.554;7.844;2022-09-09T04:08:24;4.47;;;2.00;;
50789;SDS011;37287;47.554;7.844;2022-09-09T04:10:55;3.78;;;1.67;;
50789;SDS011;37287;47.554;7.844;2022-09-09T04:13:24;4.13;;;1.70;;
50789;SDS011;37287;47.554;7.844;2022-09-09T04:15:55;3.38;;;1.35;;
50789;SDS011;37287;47.554;7.844;2022-09-09T04:18:26;6.05;;;1.50;;
50789;SDS011;37287;47.554;7.844;2022-09-09T04:20:54;4.82;;;1.67;;
50789;SDS011;37287;47.554;7.844;2022-09-09T04:23:25;3.03;;;1.50;;
50789;SDS011;37287;47.554;7.844;2022-09-09T04:25:56;2.92;;;1.80;;
50789;SDS011;37287;47.554;7.844;2022-09-09T04:28:24;2.95;;;1.70;;
50789;SDS011;37287;47.554;7.844;2022-09-09T04:30:52;1.80;;;1.67;;
50789;SDS011;37287;47.554;7.844;2022-09-09T04:33:27;6.28;;;2.40;;
50789;SDS011;37287;47.554;7.844;2022-09-09T04:35:54;4.97;;;1.83;;
50789;SDS011;37287;47.554;7.844;2022-09-09T04:38:21;5.80;;;2.00;;
50789;SDS011;37287;47.554;7.844;2022-09-09T04:40:51;2.92;;;2.28;;
50789;SDS011;37287;47.554;7.844;2022-09-09T04:43:19;3.28;;;1.90;;
50789;SDS011;37287;47.554;7.844;2022-09-09T04:45:47;2.72;;;1.80;;
50789;SDS011;37287;47.554;7.844;2022-09-09T04:48:19;2.90;;;1.70;;
50789;SDS011;37287;47.554;7.844;2022-09-09T04:51:20;5.38;;;1.65;;
50789;SDS011;37287;47.554;7.844;2022-09-09T04:53:42;1.90;;;1.50;;
50789;SDS011;37287;47.554;7.844;2022-09-09T04:56:13;2.67;;;1.50;;
50789;SDS011;37287;47.554;7.844;2022-09-09T04:58:41;1.85;;;1.40;;
50789;SDS011;37287;47.554;7.844;2022-09-09T05:01:17;1.27;;;1.17;;
50789;SDS011;37287;47.554;7.844;2022-09-09T05:03:50;2.95;;;1.50;;
50789;SDS011;37287;47.554;7.844;2022-09-09T05:06:19;5.82;;;1.30;;
50789;SDS011;37287;47.554;7.844;2022-09-09T05:08:47;2.28;;;1.20;;
50789;SDS011;37287;47.554;7.844;2022-09-09T05:11:23;1.95;;;1.13;;
50789;SDS011;37287;47.554;7.844;2022-09-09T05:13:53;1.23;;;1.13;;
50789;SDS011;37287;47.554;7.844;2022-09-09T05:16:21;2.13;;;1.35;;
50789;SDS011;37287;47.554;7.844;2022-09-09T05:18:49;7.75;;;1.83;;
50789;SDS011;37287;47.554;7.844;2022-09-09T05:21:18;2.55;;;1.45;;
50789;SDS011;37287;47.554;7.844;2022-09-09T05:23:46;2.50;;;1.38;;
50789;SDS011;37287;47.554;7.844;2022-09-09T05:26:14;1.60;;;1.30;;
50789;SDS011;37287;47.554;7.844;2022-09-09T05:28:43;4.38;;;1.60;;
50789;SDS011;37287;47.554;7.844;2022-09-09T05:31:14;4.53;;;1.40;;
50789;SDS011;37287;47.554;7.844;2022-09-09T05:33:43;1.45;;;1.15;;
50789;SDS011;37287;47.554;7.844;2022-09-09T05:36:13;1.70;;;1.38;;
50789;SDS011;37287;47.554;7.844;2022-09-09T05:38:41;2.25;;;1.85;;
50789;SDS011;37287;47.554;7.844;2022-09-09T05:41:08;3.70;;;1.73;;
50789;SDS011;37287;47.554;7.844;2022-09-09T05:43:37;2.47;;;1.38;;
50789;SDS011;37287;47.554;7.844;2022-09-09T05:46:05;3.45;;;1.52;;
50789;SDS011;37287;47.554;7.844;2022-09-09T05:48:35;1.95;;;1.30;;
50789;SDS011;37287;47.554;7.844;2022-09-09T05:51:06;3.28;;;2.33;;
50789;SDS011;37287;47.554;7.844;2022-09-09T05:53:35;3.95;;;1.92;;
50789;SDS011;37287;47.554;7.844;2022-09-09T05:56:05;5.10;;;2.10;;
50789;SDS011;37287;47.554;7.844;2022-09-09T05:58:33;4.63;;;2.40;;
50789;SDS011;37287;47.554;7.844;2022-09-09T06:01:46;3.00;;;2.30;;
50789;SDS011;37287;47.554;7.844;2022-09-09T06:03:49;3.40;;;2.20;;
50789;SDS011;37287;47.554;7.844;2022-09-09T06:06:26;3.72;;;2.05;;
50789;SDS011;37287;47.554;7.844;2022-09-09T06:09:07;9.23;;;2.10;;
50789;SDS011;37287;47.554;7.844;2022-09-09T06:11:37;2.88;;;1.92;;
50789;SDS011;37287;47.554;7.844;2022-09-09T06:14:05;2.95;;;1.70;;
50789;SDS011;37287;47.554;7.844;2022-09-09T06:16:33;2.67;;;1.73;;
50789;SDS011;37287;47.554;7.844;2022-09-09T06:19:00;3.60;;;1.58;;
50789;SDS011;37287;47.554;7.844;2022-09-09T06:21:30;1.55;;;1.45;;
50789;SDS011;37287;47.554;7.844;2022-09-09T06:24:03;2.55;;;1.45;;
50789;SDS011;37287;47.554;7.844;2022-09-09T06:26:31;5.03;;;1.42;;
50789;SDS011;37287;47.554;7.844;2022-09-09T06:29:02;2.92;;;1.23;;
50789;SDS011;37287;47.554;7.844;2022-09-09T06:31:31;5.25;;;1.60;;
50789;SDS011;37287;47.554;7.844;2022-09-09T06:34:00;4.15;;;1.35;;
50789;SDS011;37287;47.554;7.844;2022-09-09T06:36:28;2.38;;;1.25;;
50789;SDS011;37287;47.554;7.844;2022-09-09T06:38:57;4.53;;;1.70;;
50789;SDS011;37287;47.554;7.844;2022-09-09T06:41:25;8.52;;;1.52;;
50789;SDS011;37287;47.554;7.844;2022-09-09T06:43:53;3.05;;;1.40;;
50789;SDS011;37287;47.554;7.844;2022-09-09T06:46:29;4.53;;;1.63;;
50789;SDS011;37287;47.554;7.844;2022-09-09T06:48:59;3.40;;;1.48;;
50789;SDS011;37287;47.554;7.844;2022-09-09T06:51:32;2.60;;;1.30;;
50789;SDS011;37287;47.554;7.844;2022-09-09T06:54:01;5.78;;;1.20;;
50789;SDS011;37287;47.554;7.844;2022-09-09T06:56:32;2.60;;;1.40;;
50789;SDS011;37287;47.554;7.844;2022-09-09T06:59:04;1.63;;;1.20;;
50789;SDS011;37287;47.554;7.844;2022-09-09T07:01:36;1.50;;;1.20;;
50789;SDS011;37287;47.554;7.844;2022-09-09T07:04:08;3.03;;;1.05;;
50789;SDS011;37287;47.554;7.844;2022-09-09T07:06:38;3.40;;;1.30;;
50789;SDS011;37287;47.554;7.844;2022-09-09T07:09:07;1.42;;;1.20;;
50789;SDS011;37287;47.554;7.844;2022-09-09T07:11:40;2.75;;;1.30;;
50789;SDS011;37287;47.554;7.844;2022-09-09T07:14:08;2.10;;;1.10;;
50789;SDS011;37287;47.554;7.844;2022-09-09T07:16:35;4.78;;;1.67;;
50789;SDS011;37287;47.554;7.844;2022-09-09T07:19:07;6.70;;;1.70;;
50789;SDS011;37287;47.554;7.844;2022-09-09T07:21:34;4.80;;;1.70;;
50789;SDS011;37287;47.554;7.844;2022-09-09T07:24:01;3.10;;;1.48;;
50789;SDS011;37287;47.554;7.844;2022-09-09T07:26:30;2.03;;;1.35;;
50789;SDS011;37287;47.554;7.844;2022-09-09T07:29:05;1.60;;;1.30;;
50789;SDS011;37287;47.554;7.844;2022-09-09T07:31:33;2.80;;;1.20;;
50789;SDS011;37287;47.554;7.844;2022-09-09T07:34:03;3.08;;;1.33;;
50789;SDS011;37287;47.554;7.844;2022-09-09T07:36:31;5.05;;;1.52;;
50789;SDS011;37287;47.554;7.844;2022-09-09T07:39:00;2.80;;;1.48;;
50789;SDS011;37287;47.554;7.844;2022-09-09T07:41:33;1.83;;;1.10;;
50789;SDS011;37287;47.554;7.844;2022-09-09T07:44:07;4.57;;;1.38;;
50789;SDS011;37287;47.554;7.844;2022-09-09T07:46:35;4.22;;;1.00;;
50789;SDS011;37287;47.554;7.844;2022-09-09T07:49:02;1.35;;;1.10;;
50789;SDS011;37287;47.554;7.844;2022-09-09T07:51:32;4.53;;;1.17;;
50789;SDS011;37287;47.554;7.844;2022-09-09T07:54:06;0.90;;;0.80;;
50789;SDS011;37287;47.554;7.844;2022-09-09T07:56:35;1.25;;;1.00;;
50789;SDS011;37287;47.554;7.844;2022-09-09T07:59:06;3.67;;;1.00;;
50789;SDS011;37287;47.554;7.844;2022-09-09T08:01:36;3.15;;;0.88;;
50789;SDS011;37287;47.554;7.844;2022-09-09T08:04:08;4.40;;;1.20;;
50789;SDS011;37287;47.554;7.844;2022-09-09T08:06:42;2.65;;;1.15;;
50789;SDS011;37287;47.554;7.844;2022-09-09T08:09:14;2.15;;;1.00;;
50789;SDS011;37287;47.554;7.844;2022-09-09T08:11:42;1.45;;;0.90;;
50789;SDS011;37287;47.554;7.844;2022-09-09T08:14:09;2.10;;;1.10;;
50789;SDS011;37287;47.554;7.844;2022-09-09T08:16:40;3.72;;;1.13;;
50789;SDS011;37287;47.554;7.844;2022-09-09T08:19:08;1.52;;;0.90;;
50789;SDS011;37287;47.554;7.844;2022-09-09T08:21:36;3.30;;;1.10;;
50789;SDS011;37287;47.554;7.844;2022-09-09T08:24:07;3.58;;;1.30;;
50789;SDS011;37287;47.554;7.844;2022-09-09T08:26:37;1.73;;;0.80;;
50789;SDS011;37287;47.554;7.844;2022-09-09T08:29:08;2.80;;;0.85;;
50789;SDS011;37287;47.554;7.844;2022-09-09T08:31:51;2.20;;;0.93;;
50789;SDS011;37287;47.554;7.844;2022-09-09T08:34:21;2.30;;;1.10;;
50789;SDS011;37287;47.554;7.844;2022-09-09T08:36:48;4.38;;;1.15;;
50789;SDS011;37287;47.554;7.844;2022-09-09T08:39:17;2.15;;;0.93;;
50789;SDS011;37287;47.554;7.844;2022-09-09T08:52:47;2.67;;;0.90;;
50789;SDS011;37287;47.554;7.844;2022-09-09T08:58:18;4.60;;;1.25;;
50789;SDS011;37287;47.554;7.844;2022-09-09T09:00:53;1.75;;;0.90;;
50789;SDS011;37287;47.554;7.844;2022-09-09T09:12:25;3.50;;;1.10;;
50789;SDS011;37287;47.554;7.844;2022-09-09T09:14:56;1.45;;;0.75;;
50789;SDS011;37287;47.554;7.844;2022-09-09T09:17:23;1.95;;;1.23;;
50789;SDS011;37287;47.554;7.844;2022-09-09T09:19:55;1.92;;;1.13;;
50789;SDS011;37287;47.554;7.844;2022-09-09T09:22:39;2.08;;;0.88;;
50789;SDS011;37287;47.554;7.844;2022-09-09T09:28:03;6.35;;;1.00;;
50789;SDS011;37287;47.554;7.844;2022-09-09T09:30:49;2.80;;;1.08;;
50789;SDS011;37287;47.554;7.844;2022-09-09T09:33:28;2.13;;;0.80;;
50789;SDS011;37287;47.554;7.844;2022-09-09T09:36:04;1.85;;;0.80;;
50789;SDS011;37287;47.554;7.844;2022-09-09T09:38:36;2.13;;;0.70;;
50789;SDS011;37287;47.554;7.844;2022-09-09T09:41:33;1.58;;;0.70;;
50789;SDS011;37287;47.554;7.844;2022-09-09T09:44:02;2.47;;;1.00;;
50789;SDS011;37287;47.554;7.844;2022-09-09T09:46:30;1.67;;;0.68;;
50789;SDS011;37287;47.554;7.844;2022-09-09T09:48:59;1.45;;;0.60;;
50789;SDS011;37287;47.554;7.844;2022-09-09T09:51:33;2.50;;;0.68;;
50789;SDS011;37287;47.554;7.844;2022-09-09T09:54:22;2.58;;;0.77;;
50789;SDS011;37287;47.554;7.844;2022-09-09T09:59:34;3.67;;;1.17;;
50789;SDS011;37287;47.554;7.844;2022-09-09T10:02:06;4.95;;;0.82;;
50789;SDS011;37287;47.554;7.844;2022-09-09T10:04:40;1.98;;;0.70;;
50789;SDS011;37287;47.554;7.844;2022-09-09T10:07:11;10.32;;;1.20;;
50789;SDS011;37287;47.554;7.844;2022-09-09T10:09:54;3.22;;;1.10;;
50789;SDS011;37287;47.554;7.844;2022-09-09T10:15:34;1.52;;;0.70;;
50789;SDS011;37287;47.554;7.844;2022-09-09T10:18:22;2.72;;;0.80;;
50789;SDS011;37287;47.554;7.844;2022-09-09T10:24:23;5.60;;;0.90;;
50789;SDS011;37287;47.554;7.844;2022-09-09T10:26:47;3.85;;;0.88;;
50789;SDS011;37287;47.554;7.844;2022-09-09T10:35:04;3.75;;;0.63;;
50789;SDS011;37287;47.554;7.844;2022-09-09T10:37:41;3.22;;;0.80;;
50789;SDS011;37287;47.554;7.844;2022-09-09T10:40:32;3.25;;;0.80;;
50789;SDS011;37287;47.554;7.844;2022-09-09T10:45:48;2.88;;;0.90;;
50789;SDS011;37287;47.554;7.844;2022-09-09T10:50:55;2.97;;;0.95;;
50789;SDS011;37287;47.554;7.844;2022-09-09T10:53:42;2.42;;;0.98;;
50789;SDS011;37287;47.554;7.844;2022-09-09T10:56:20;2.33;;;1.05;;
50789;SDS011;37287;47.554;7.844;2022-09-09T10:58:54;2.08;;;0.55;;
50789;SDS011;37287;47.554;7.844;2022-09-09T11:04:32;2.40;;;0.77;;
50789;SDS011;37287;47.554;7.844;2022-09-09T11:07:08;3.73;;;0.57;;
50789;SDS011;37287;47.554;7.844;2022-09-09T11:09:40;1.90;;;0.80;;
50789;SDS011;37287;47.554;7.844;2022-09-09T11:12:15;1.67;;;0.73;;
50789;SDS011;37287;47.554;7.844;2022-09-09T11:15:09;2.90;;;0.70;;
50789;SDS011;37287;47.554;7.844;2022-09-09T11:17:42;3.17;;;0.75;;
50789;SDS011;37287;47.554;7.844;2022-09-09T11:20:15;3.40;;;0.80;;
50789;SDS011;37287;47.554;7.844;2022-09-09T11:25:23;6.30;;;0.93;;
50789;SDS011;37287;47.554;7.844;2022-09-09T11:33:51;1.20;;;0.80;;
50789;SDS011;37287;47.554;7.844;2022-09-09T11:37:02;1.90;;;0.70;;
50789;SDS011;37287;47.554;7.844;2022-09-09T11:39:38;3.15;;;0.80;;
50789;SDS011;37287;47.554;7.844;2022-09-09T11:42:21;2.47;;;0.80;;
50789;SDS011;37287;47.554;7.844;2022-09-09T11:44:50;1.92;;;0.70;;
50789;SDS011;37287;47.554;7.844;2022-09-09T11:49:52;1.75;;;0.73;;
50789;SDS011;37287;47.554;7.844;2022-09-09T11:52:24;2.13;;;0.80;;
50789;SDS011;37287;47.554;7.844;2022-09-09T12:00:35;5.65;;;1.08;;
50789;SDS011;37287;47.554;7.844;2022-09-09T12:03:31;3.25;;;0.80;;
50789;SDS011;37287;47.554;7.844;2022-09-09T12:09:09;3.70;;;0.50;;
50789;SDS011;37287;47.554;7.844;2022-09-09T12:11:43;2.65;;;0.77;;
50789;SDS011;37287;47.554;7.844;2022-09-09T12:14:19;1.67;;;0.75;;
50789;SDS011;37287;47.554;7.844;2022-09-09T12:17:20;3.25;;;1.10;;
50789;SDS011;37287;47.554;7.844;2022-09-09T12:20:08;1.88;;;0.70;;
50789;SDS011;37287;47.554;7.844;2022-09-09T12:25:26;2.10;;;0.85;;
50789;SDS011;37287;47.554;7.844;2022-09-09T12:28:19;4.38;;;1.08;;
50789;SDS011;37287;47.554;7.844;2022-09-09T12:30:53;5.32;;;1.10;;
50789;SDS011;37287;47.554;7.844;2022-09-09T12:33:33;2.53;;;0.70;;
50789;SDS011;37287;47.554;7.844;2022-09-09T12:36:03;3.13;;;1.10;;
50789;SDS011;37287;47.554;7.844;2022-09-09T12:38:38;2.20;;;0.77;;
50789;SDS011;37287;47.554;7.844;2022-09-09T12:41:17;6.07;;;0.93;;
50789;SDS011;37287;47.554;7.844;2022-09-09T12:43:50;2.00;;;0.90;;
50789;SDS011;37287;47.554;7.844;2022-09-09T12:46:27;4.15;;;0.90;;
50789;SDS011;37287;47.554;7.844;2022-09-09T12:48:59;3.08;;;1.00;;
50789;SDS011;37287;47.554;7.844;2022-09-09T12:51:27;4.18;;;0.88;;
50789;SDS011;37287;47.554;7.844;2022-09-09T12:53:59;3.00;;;0.70;;
50789;SDS011;37287;47.554;7.844;2022-09-09T12:56:30;1.80;;;0.70;;
50789;SDS011;37287;47.554;7.844;2022-09-09T12:58:58;3.10;;;0.70;;
50789;SDS011;37287;47.554;7.844;2022-09-09T13:01:26;0.70;;;0.50;;
50789;SDS011;37287;47.554;7.844;2022-09-09T13:06:28;2.60;;;0.88;;
50789;SDS011;37287;47.554;7.844;2022-09-09T13:08:57;4.18;;;0.85;;
50789;SDS011;37287;47.554;7.844;2022-09-09T13:14:18;3.60;;;1.00;;
50789;SDS011;37287;47.554;7.844;2022-09-09T13:16:56;2.83;;;0.65;;
50789;SDS011;37287;47.554;7.844;2022-09-09T13:19:24;5.25;;;0.70;;
50789;SDS011;37287;47.554;7.844;2022-09-09T13:21:54;2.15;;;0.63;;
50789;SDS011;37287;47.554;7.844;2022-09-09T13:24:33;1.65;;;0.60;;
50789;SDS011;37287;47.554;7.844;2022-09-09T13:27:03;2.75;;;0.80;;
50789;SDS011;37287;47.554;7.844;2022-09-09T13:29:54;1.80;;;0.90;;
50789;SDS011;37287;47.554;7.844;2022-09-09T13:32:24;2.10;;;0.70;;
50789;SDS011;37287;47.554;7.844;2022-09-09T13:34:59;2.00;;;0.70;;
50789;SDS011;37287;47.554;7.844;2022-09-09T13:39:59;1.98;;;0.73;;
50789;SDS011;37287;47.554;7.844;2022-09-09T13:42:29;2.47;;;0.70;;
50789;SDS011;37287;47.554;7.844;2022-09-09T13:44:58;2.65;;;0.50;;
50789;SDS011;37287;47.554;7.844;2022-09-09T13:47:30;2.13;;;0.63;;
50789;SDS011;37287;47.554;7.844;2022-09-09T13:50:09;0.22;;;0.22;;
50789;SDS011;37287;47.554;7.844;2022-09-09T13:52:52;1.00;;;0.60;;
50789;SDS011;37287;47.554;7.844;2022-09-09T13:55:28;3.97;;;0.70;;
50789;SDS011;37287;47.554;7.844;2022-09-09T13:58:01;3.60;;;0.75;;
50789;SDS011;37287;47.554;7.844;2022-09-09T14:00:29;2.78;;;0.70;;
50789;SDS011;37287;47.554;7.844;2022-09-09T14:02:57;1.48;;;0.47;;
50789;SDS011;37287;47.554;7.844;2022-09-09T14:05:28;2.85;;;0.85;;
50789;SDS011;37287;47.554;7.844;2022-09-09T14:07:57;2.08;;;0.55;;
50789;SDS011;37287;47.554;7.844;2022-09-09T14:10:27;1.85;;;0.70;;
50789;SDS011;37287;47.554;7.844;2022-09-09T14:12:53;1.88;;;0.70;;
50789;SDS011;37287;47.554;7.844;2022-09-09T14:15:20;1.40;;;0.50;;
50789;SDS011;37287;47.554;7.844;2022-09-09T14:17:48;1.02;;;0.30;;
50789;SDS011;37287;47.554;7.844;2022-09-09T14:20:14;2.83;;;0.68;;
50789;SDS011;37287;47.554;7.844;2022-09-09T14:22:43;1.30;;;0.50;;
50789;SDS011;37287;47.554;7.844;2022-09-09T14:25:10;2.45;;;0.80;;
50789;SDS011;37287;47.554;7.844;2022-09-09T14:27:39;2.75;;;0.70;;
50789;SDS011;37287;47.554;7.844;2022-09-09T14:30:06;2.15;;;0.70;;
50789;SDS011;37287;47.554;7.844;2022-09-09T14:32:35;1.65;;;0.55;;
50789;SDS011;37287;47.554;7.844;2022-09-09T14:35:02;2.83;;;0.80;;
50789;SDS011;37287;47.554;7.844;2022-09-09T14:37:31;1.85;;;0.60;;
50789;SDS011;37287;47.554;7.844;2022-09-09T14:39:57;2.65;;;0.75;;
50789;SDS011;37287;47.554;7.844;2022-09-09T14:42:26;2.05;;;0.65;;
50789;SDS011;37287;47.554;7.844;2022-09-09T14:44:53;1.73;;;0.70;;
50789;SDS011;37287;47.554;7.844;2022-09-09T14:47:19;3.17;;;0.68;;
50789;SDS011;37287;47.554;7.844;2022-09-09T14:49:52;3.20;;;1.10;;
50789;SDS011;37287;47.554;7.844;2022-09-09T14:52:19;3.85;;;0.80;;
50789;SDS011;37287;47.554;7.844;2022-09-09T14:54:46;2.05;;;0.70;;
50789;SDS011;37287;47.554;7.844;2022-09-09T14:57:14;1.70;;;0.70;;
50789;SDS011;37287;47.554;7.844;2022-09-09T14:59:41;3.15;;;0.55;;
50789;SDS011;37287;47.554;7.844;2022-09-09T15:02:10;2.78;;;0.75;;
50789;SDS011;37287;47.554;7.844;2022-09-09T15:04:41;1.55;;;0.50;;
50789;SDS011;37287;47.554;7.844;2022-09-09T15:07:08;3.83;;;0.60;;
50789;SDS011;37287;47.554;7.844;2022-09-09T15:09:34;3.35;;;0.70;;
50789;SDS011;37287;47.554;7.844;2022-09-09T15:12:05;2.88;;;0.40;;
50789;SDS011;37287;47.554;7.844;2022-09-09T15:14:32;1.27;;;0.60;;
50789;SDS011;37287;47.554;7.844;2022-09-09T15:16:58;1.00;;;0.43;;
50789;SDS011;37287;47.554;7.844;2022-09-09T15:19:27;1.38;;;0.50;;
50789;SDS011;37287;47.554;7.844;2022-09-09T15:21:54;0.93;;;0.38;;
50789;SDS011;37287;47.554;7.844;2022-09-09T15:24:21;1.58;;;0.60;;
50789;SDS011;37287;47.554;7.844;2022-09-09T15:26:50;2.50;;;0.70;;
50789;SDS011;37287;47.554;7.844;2022-09-09T15:29:16;6.10;;;0.70;;
50789;SDS011;37287;47.554;7.844;2022-09-09T15:31:43;1.73;;;0.50;;
50789;SDS011;37287;47.554;7.844;2022-09-09T15:34:15;1.73;;;0.65;;
50789;SDS011;37287;47.554;7.844;2022-09-09T15:36:43;1.88;;;0.60;;
50789;SDS011;37287;47.554;7.844;2022-09-09T15:39:13;1.45;;;0.47;;
50789;SDS011;37287;47.554;7.844;2022-09-09T15:41:42;1.35;;;0.60;;
50789;SDS011;37287;47.554;7.844;2022-09-09T15:44:10;3.25;;;0.60;;
50789;SDS011;37287;47.554;7.844;2022-09-09T15:46:40;0.85;;;0.40;;
50789;SDS011;37287;47.554;7.844;2022-09-09T15:49:12;1.83;;;0.57;;
50789;SDS011;37287;47.554;7.844;2022-09-09T15:51:41;1.05;;;0.43;;
50789;SDS011;37287;47.554;7.844;2022-09-09T15:54:14;0.95;;;0.40;;
50789;SDS011;37287;47.554;7.844;2022-09-09T15:56:44;4.65;;;0.85;;
50789;SDS011;37287;47.554;7.844;2022-09-09T15:59:12;4.28;;;0.80;;
50789;SDS011;37287;47.554;7.844;2022-09-09T16:01:40;2.15;;;0.80;;
50789;SDS011;37287;47.554;7.844;2022-09-09T16:04:08;2.80;;;0.90;;
50789;SDS011;37287;47.554;7.844;2022-09-09T16:06:36;5.00;;;0.60;;
50789;SDS011;37287;47.554;7.844;2022-09-09T16:09:06;2.13;;;0.80;;
50789;SDS011;37287;47.554;7.844;2022-09-09T16:11:34;4.13;;;0.90;;
50789;SDS011;37287;47.554;7.844;2022-09-09T16:14:03;2.28;;;0.68;;
50789;SDS011;37287;47.554;7.844;2022-09-09T16:16:31;2.95;;;0.70;;
50789;SDS011;37287;47.554;7.844;2022-09-09T16:19:02;2.30;;;0.70;;
50789;SDS011;37287;47.554;7.844;2022-09-09T16:21:32;2.03;;;0.68;;
50789;SDS011;37287;47.554;7.844;2022-09-09T16:24:02;2.70;;;0.60;;
50789;SDS011;37287;47.554;7.844;2022-09-09T16:26:33;2.78;;;0.90;;
50789;SDS011;37287;47.554;7.844;2022-09-09T16:29:01;2.30;;;0.70;;
50789;SDS011;37287;47.554;7.844;2022-09-09T16:31:33;2.60;;;0.82;;
50789;SDS011;37287;47.554;7.844;2022-09-09T16:34:00;1.60;;;0.50;;
50789;SDS011;37287;47.554;7.844;2022-09-09T16:36:30;1.95;;;0.60;;
50789;SDS011;37287;47.554;7.844;2022-09-09T16:39:22;1.42;;;0.60;;
50789;SDS011;37287;47.554;7.844;2022-09-09T16:41:49;1.65;;;0.70;;
50789;SDS011;37287;47.554;7.844;2022-09-09T16:44:18;1.70;;;0.60;;
50789;SDS011;37287;47.554;7.844;2022-09-09T16:46:45;1.55;;;0.55;;
50789;SDS011;37287;47.554;7.844;2022-09-09T16:49:16;1.75;;;0.35;;
50789;SDS011;37287;47.554;7.844;2022-09-09T16:51:46;0.95;;;0.43;;
50789;SDS011;37287;47.554;7.844;2022-09-09T16:54:16;2.30;;;0.50;;
50789;SDS011;37287;47.554;7.844;2022-09-09T16:56:47;0.30;;;0.30;;
50789;SDS011;37287;47.554;7.844;2022-09-09T16:59:14;0.45;;;0.40;;
50789;SDS011;37287;47.554;7.844;2022-09-09T17:01:43;0.57;;;0.25;;
50789;SDS011;37287;47.554;7.844;2022-09-09T17:04:12;0.60;;;0.30;;
50789;SDS011;37287;47.554;7.844;2022-09-09T17:06:47;1.42;;;0.30;;
50789;SDS011;37287;47.554;7.844;2022-09-09T17:09:18;0.65;;;0.20;;